Observation data for Dora on 08/14/2019      Previous  Date  Next       Current Mesonet Observations  Soil Data  Daily Summary Page  Observations in Plain Language
KDR1 140500Z 11010KT 24/15 A3021 RMK A01 T02430149  RH  058%=      5-min Rain = 0
KDR1 140505Z 11010KT 24/15 A3021 RMK A01 T02420149  RH  059%=      5-min Rain = 0
KDR1 140510Z 11009KT 24/15 A3021 RMK A01 T02390150  RH  060%=      5-min Rain = 0
KDR1 140515Z 11010KT 24/15 A3021 RMK A01 T02380150  RH  060%=      5-min Rain = 0
KDR1 140520Z 11009KT 24/15 A302 RMK A01 T02380150  RH  060%=      5-min Rain = 0
KDR1 140525Z 11010KT 24/15 A302 RMK A01 T02360150  RH  061%=      5-min Rain = 0
KDR1 140530Z 11009KT 24/15 A302 RMK A01 T02350150  RH  062%=      5-min Rain = 0
KDR1 140535Z 11010KT 24/15 A302 RMK A01 T02350149  RH  061%=      5-min Rain = 0
KDR1 140540Z 12011KT 24/15 A302 RMK A01 T02380149  RH  060%=      5-min Rain = 0
KDR1 140545Z 12012G18KT 24/15 A3019 RMK A01 T02390150  RH  060%=      5-min Rain = 0
KDR1 140550Z 12011KT 24/15 A302 RMK A01 T02380149  RH  060%=      5-min Rain = 0
KDR1 140555Z 12012KT 24/15 A3019 RMK A01 T02370150  RH  061%=      5-min Rain = 0
KDR1 140600Z 13011KT 24/15 A3019 RMK A01 T02370149  RH  061%=      5-min Rain = 0
KDR1 140605Z 12012KT 24/15 A302 RMK A01 T02370150  RH  061%=      5-min Rain = 0
KDR1 140610Z 12011KT 24/15 A302 RMK A01 T02350150  RH  062%=      5-min Rain = 0
KDR1 140615Z 12011KT 23/15 A302 RMK A01 T02320150  RH  063%=      5-min Rain = 0
KDR1 140620Z 12012KT 23/15 A302 RMK A01 T02320150  RH  063%=      5-min Rain = 0
KDR1 140625Z 12011KT 23/15 A302 RMK A01 T02320150  RH  063%=      5-min Rain = 0
KDR1 140630Z 12011KT 23/15 A302 RMK A01 T02290151  RH  064%=      5-min Rain = 0
KDR1 140635Z 12011KT 23/15 A302 RMK A01 T02290151  RH  065%=      5-min Rain = 0
KDR1 140640Z 12011KT 23/15 A302 RMK A01 T02270151  RH  065%=      5-min Rain = 0
KDR1 140645Z 12010KT 23/15 A302 RMK A01 T02250152  RH  066%=      5-min Rain = 0
KDR1 140650Z 11009KT 22/15 A302 RMK A01 T02210151  RH  067%=      5-min Rain = 0
KDR1 140655Z 11009KT 22/15 A302 RMK A01 T02180151  RH  069%=      5-min Rain = 0
KDR1 140700Z 12010KT 22/15 A302 RMK A01 T02180152  RH  069%=      5-min Rain = 0
KDR1 140705Z 11010KT 22/15 A302 RMK A01 T02190152  RH  069%=      5-min Rain = 0
KDR1 140710Z 12010KT 22/15 A302 RMK A01 T02190152  RH  069%=      5-min Rain = 0
KDR1 140715Z 12010KT 22/15 A302 RMK A01 T02190153  RH  069%=      5-min Rain = 0
KDR1 140720Z 12011KT 22/15 A302 RMK A01 T02210154  RH  069%=      5-min Rain = 0
KDR1 140725Z 12010KT 22/15 A302 RMK A01 T02200153  RH  069%=      5-min Rain = 0
KDR1 140730Z 12011KT 22/15 A302 RMK A01 T02180154  RH  070%=      5-min Rain = 0
KDR1 140735Z 12010KT 22/15 A302 RMK A01 T02190154  RH  070%=      5-min Rain = 0
KDR1 140740Z 12010KT 22/15 A302 RMK A01 T02170154  RH  071%=      5-min Rain = 0
KDR1 140745Z 11010KT 22/16 A3021 RMK A01 T02180155  RH  071%=      5-min Rain = 0
KDR1 140750Z 10009KT 22/16 A3021 RMK A01 T02170155  RH  071%=      5-min Rain = 0
KDR1 140755Z 10010KT 22/16 A3021 RMK A01 T02150155  RH  072%=      5-min Rain = 0
KDR1 140800Z 10007KT 21/15 A3021 RMK A01 T02110154  RH  073%=      5-min Rain = 0
KDR1 140805Z 11007KT 21/15 A3021 RMK A01 T02100154  RH  074%=      5-min Rain = 0
KDR1 140810Z 11008KT 21/16 A3021 RMK A01 T02100155  RH  074%=      5-min Rain = 0
KDR1 140815Z 09008KT 21/16 A3021 RMK A01 T02100155  RH  074%=      5-min Rain = 0
KDR1 140820Z 08009KT 21/16 A3021 RMK A01 T02100156  RH  075%=      5-min Rain = 0
KDR1 140825Z 08010KT 21/16 A3021 RMK A01 T02090156  RH  075%=      5-min Rain = 0
KDR1 140830Z 09010KT 21/16 A3021 RMK A01 T02100158  RH  076%=      5-min Rain = 0
KDR1 140835Z 09011KT 21/16 A3021 RMK A01 T02120160  RH  076%=      5-min Rain = 0
KDR1 140840Z 09012KT 21/16 A3021 RMK A01 T02130161  RH  076%=      5-min Rain = 0
KDR1 140845Z 09011KT 21/16 A3022 RMK A01 T02130161  RH  076%=      5-min Rain = 0
KDR1 140850Z 09010KT 21/16 A3022 RMK A01 T02120161  RH  076%=      5-min Rain = 0
KDR1 140855Z 10011KT 21/16 A3022 RMK A01 T02120161  RH  076%=      5-min Rain = 0
KDR1 140900Z 10011KT 21/16 A3022 RMK A01 T02120161  RH  076%=      5-min Rain = 0
KDR1 140905Z 10010KT 21/16 A3022 RMK A01 T02100161  RH  077%=      5-min Rain = 0
KDR1 140910Z 10011KT 21/16 A3022 RMK A01 T02100161  RH  077%=      5-min Rain = 0
KDR1 140915Z 10010KT 21/16 A3022 RMK A01 T02090161  RH  078%=      5-min Rain = 0
KDR1 140920Z 10010KT 21/16 A3022 RMK A01 T02090162  RH  078%=      5-min Rain = 0
KDR1 140925Z 10010KT 21/16 A3022 RMK A01 T02070161  RH  079%=      5-min Rain = 0
KDR1 140930Z 10009KT 21/16 A3021 RMK A01 T02060161  RH  079%=      5-min Rain = 0
KDR1 140935Z 10009KT 21/16 A3021 RMK A01 T02050162  RH  080%=      5-min Rain = 0
KDR1 140940Z 10008KT 20/16 A3021 RMK A01 T02030161  RH  081%=      5-min Rain = 0
KDR1 140945Z 10008KT 20/16 A3021 RMK A01 T02020162  RH  081%=      5-min Rain = 0
KDR1 140950Z 10008KT 20/16 A3021 RMK A01 T02010162  RH  082%=      5-min Rain = 0
KDR1 140955Z 10009KT 20/16 A3021 RMK A01 T02010162  RH  082%=      5-min Rain = 0
KDR1 141000Z 10009KT 20/16 A3021 RMK A01 T02010163  RH  083%=      5-min Rain = 0
KDR1 141005Z 10009KT 20/16 A3021 RMK A01 T02010163  RH  083%=      5-min Rain = 0
KDR1 141010Z 09009KT 20/16 A3022 RMK A01 T02000163  RH  083%=      5-min Rain = 0
KDR1 141015Z 09008KT 20/16 A3022 RMK A01 T01990163  RH  083%=      5-min Rain = 0
KDR1 141020Z 09008KT 20/16 A3022 RMK A01 T01980163  RH  084%=      5-min Rain = 0
KDR1 141025Z 08009KT 20/16 A3022 RMK A01 T01970163  RH  085%=      5-min Rain = 0
KDR1 141030Z 07009KT 20/16 A3023 RMK A01 T01970163  RH  085%=      5-min Rain = 0
KDR1 141035Z 07010KT 20/16 A3023 RMK A01 T01970164  RH  086%=      5-min Rain = 0
KDR1 141040Z 07010KT 20/17 A3023 RMK A01 T01970165  RH  086%=      5-min Rain = 0
KDR1 141045Z 07010KT 20/17 A3023 RMK A01 T01970165  RH  086%=      5-min Rain = 0
KDR1 141050Z 08010KT 20/17 A3023 RMK A01 T01980166  RH  086%=      5-min Rain = 0
KDR1 141055Z 07010KT 20/17 A3023 RMK A01 T01970166  RH  086%=      5-min Rain = 0
KDR1 141100Z 08011KT 20/17 A3023 RMK A01 T01980167  RH  086%=      5-min Rain = 0
KDR1 141105Z 08009KT 20/17 A3023 RMK A01 T01970167  RH  087%=      5-min Rain = 0
KDR1 141110Z 08010KT 20/17 A3023 RMK A01 T01970167  RH  087%=      5-min Rain = 0
KDR1 141115Z 08009KT 20/17 A3024 RMK A01 T01970167  RH  087%=      5-min Rain = 0
KDR1 141120Z 07009KT 20/17 A3024 RMK A01 T01970167  RH  087%=      5-min Rain = 0
KDR1 141125Z 07010KT 20/17 A3024 RMK A01 T01980168  RH  087%=      5-min Rain = 0
KDR1 141130Z 06010KT 20/17 A3024 RMK A01 T02010168  RH  086%=      5-min Rain = 0
KDR1 141135Z 06012G17KT 20/17 A3025 RMK A01 T02020169  RH  085%=      5-min Rain = 0
KDR1 141140Z 06015KT 20/17 A3025 RMK A01 T02010167  RH  085%=      5-min Rain = 0
KDR1 141145Z 06015G23KT 20/16 A3025 RMK A01 T01990164  RH  084%=      5-min Rain = 0
KDR1 141150Z 06013G18KT 20/16 A3026 RMK A01 T01980163  RH  084%=      5-min Rain = 0
KDR1 141155Z 06015G20KT 20/16 A3025 RMK A01 T01970160  RH  083%=      5-min Rain = 0
KDR1 141200Z 06015G20KT 20/16 A3026 RMK A01 T01950158  RH  083%=      5-min Rain = 0
KDR1 141205Z 06015G20KT 19/16 A3026 RMK A01 T01930155  RH  082%=      5-min Rain = 0
KDR1 141210Z 06015G20KT 19/15 A3026 RMK A01 T01930153  RH  082%=      5-min Rain = 0
KDR1 141215Z 06016KT 19/15 A3026 RMK A01 T01930152  RH  081%=      5-min Rain = 0
KDR1 141220Z 06015KT 19/15 A3027 RMK A01 T01930151  RH  080%=      5-min Rain = 0
KDR1 141225Z 06015G21KT 19/15 A3027 RMK A01 T01920148  RH  079%=      5-min Rain = 0
KDR1 141230Z 06016G23KT 19/14 A3027 RMK A01 T01920144  RH  077%=      5-min Rain = 0
KDR1 141235Z 06015G21KT 19/14 A3028 RMK A01 T01920139  RH  074%=      5-min Rain = 0
KDR1 141240Z 06015KT 19/14 A3028 RMK A01 T01930137  RH  073%=      5-min Rain = 0
KDR1 141245Z 06014G19KT 19/14 A3029 RMK A01 T01930136  RH  072%=      5-min Rain = 0
KDR1 141250Z 06015G21KT 19/13 A3029 RMK A01 T01930133  RH  071%=      5-min Rain = 0
KDR1 141255Z 06013G19KT 19/13 A3029 RMK A01 T01930131  RH  070%=      5-min Rain = 0
KDR1 141300Z 06014G21KT 19/13 A303 RMK A01 T01930131  RH  070%=      5-min Rain = 0
KDR1 141305Z 06013G19KT 20/13 A303 RMK A01 T01950132  RH  070%=      5-min Rain = 0
KDR1 141310Z 05013G18KT 20/13 A3031 RMK A01 T01960133  RH  069%=      5-min Rain = 0
KDR1 141315Z 05013G18KT 20/13 A3031 RMK A01 T01970132  RH  069%=      5-min Rain = 0
KDR1 141320Z 04012G17KT 20/13 A3032 RMK A01 T01970131  RH  068%=      5-min Rain = 0
KDR1 141325Z 05011G17KT 20/13 A3032 RMK A01 T01980129  RH  067%=      5-min Rain = 0
KDR1 141330Z 05014G20KT 20/13 A3032 RMK A01 T01990128  RH  066%=      5-min Rain = 0
KDR1 141335Z 05013G19KT 20/13 A3032 RMK A01 T01980127  RH  066%=      5-min Rain = 0
KDR1 141340Z 03014G21KT 20/13 A3034 RMK A01 T02000126  RH  065%=      5-min Rain = 0
KDR1 141345Z 00016G21KT 20/12 A3036 RMK A01 T01990123  RH  064%=      5-min Rain = 0
KDR1 141350Z 34016G23KT 20/12 A3037 RMK A01 T01960123  RH  065%=      5-min Rain = 0
KDR1 141355Z 36017G22KT 19/12 A3038 RMK A01 T01940116  RH  063%=      5-min Rain = 0
KDR1 141400Z 33015G20KT 19/12 A304 RMK A01 T01890121  RH  068%=      5-min Rain = 0
KDR1 141405Z 31013G18KT 18/13 A3041 RMK A01 T01810125  RH  073%=      5-min Rain = 0
KDR1 141410Z 30013G19KT 18/13 A3041 RMK A01 T01780130  RH  076%=      5-min Rain = 0
KDR1 141415Z 30013KT 17/14 A3042 RMK A01 T01680135  RH  084%=      5-min Rain = 0.08
KDR1 141420Z 33011KT 16/14 A3041 RMK A01 T01630135  RH  087%=      5-min Rain = 0.07
KDR1 141425Z 34009G14KT 16/14 A3039 RMK A01 T01610136  RH  089%=      5-min Rain = 0.04
KDR1 141430Z 04008KT 16/14 A3038 RMK A01 T01600138  RH  090%=      5-min Rain = 0.13
KDR1 141435Z 08014G22KT 16/14 A3036 RMK A01 T01600136  RH  090%=      5-min Rain = 0.11
KDR1 141440Z 09023KT 16/13 A3033 RMK A01 T01600133  RH  087%=      5-min Rain = 0.04
KDR1 141445Z 08025G30KT 16/13 A303 RMK A01 T01640131  RH  084%=      5-min Rain = 0.01
KDR1 141450Z 09025G32KT 17/13 A3028 RMK A01 T01670130  RH  082%=      5-min Rain = 0.01
KDR1 141455Z 09024G30KT 17/13 A3026 RMK A01 T01700128  RH  079%=      5-min Rain = 0
KDR1 141500Z 09025G34KT 18/12 A3026 RMK A01 T01760124  RH  074%=      5-min Rain = 0
KDR1 141505Z 09023G29KT 18/12 A3026 RMK A01 T01780124  RH  074%=      5-min Rain = 0
KDR1 141510Z 09019G27KT 18/12 A3027 RMK A01 T01820124  RH  071%=      5-min Rain = 0
KDR1 141515Z 10018G26KT 19/12 A3027 RMK A01 T01860123  RH  069%=      5-min Rain = 0
KDR1 141520Z 09020G25KT 19/12 A3026 RMK A01 T01900123  RH  067%=      5-min Rain = 0
KDR1 141525Z 09015G22KT 19/13 A3027 RMK A01 T01940126  RH  067%=      5-min Rain = 0
KDR1 141530Z 09017G22KT 20/13 A3026 RMK A01 T01960125  RH  066%=      5-min Rain = 0
KDR1 141535Z 12018G25KT 20/13 A3026 RMK A01 T01990126  RH  065%=      5-min Rain = 0
KDR1 141540Z 15014G19KT 21/13 A3027 RMK A01 T02060134  RH  066%=      5-min Rain = 0
KDR1 141545Z 14013G18KT 21/14 A3027 RMK A01 T02050135  RH  067%=      5-min Rain = 0
KDR1 141550Z 13014KT 21/14 A3027 RMK A01 T02050137  RH  068%=      5-min Rain = 0
KDR1 141555Z 12013KT 20/13 A3027 RMK A01 T02040133  RH  066%=      5-min Rain = 0
KDR1 141600Z 11010KT 21/14 A3027 RMK A01 T02090135  RH  065%=      5-min Rain = 0
KDR1 141605Z 10011KT 22/14 A3028 RMK A01 T02210138  RH  062%=      5-min Rain = 0
KDR1 141610Z 08009KT 22/14 A3028 RMK A01 T02230138  RH  061%=      5-min Rain = 0
KDR1 141615Z 04008KT 22/14 A3029 RMK A01 T02190139  RH  063%=      5-min Rain = 0
KDR1 141620Z 04006KT 22/14 A3029 RMK A01 T02170140  RH  064%=      5-min Rain = 0
KDR1 141625Z 04005KT 22/14 A3029 RMK A01 T02210138  RH  062%=      5-min Rain = 0
KDR1 141630Z 02006KT 22/14 A3029 RMK A01 T02220139  RH  062%=      5-min Rain = 0
KDR1 141635Z 01007KT 23/14 A3029 RMK A01 T02280142  RH  061%=      5-min Rain = 0
KDR1 141640Z 01004KT 23/14 A3029 RMK A01 T02280140  RH  060%=      5-min Rain = 0
KDR1 141645Z 06003KT 23/13 A3029 RMK A01 T02300134  RH  057%=      5-min Rain = 0
KDR1 141650Z 12003KT 24/13 A303 RMK A01 T02350133  RH  055%=      5-min Rain = 0
KDR1 141655Z 17003KT 24/14 A3029 RMK A01 T02410135  RH  054%=      5-min Rain = 0
KDR1 141700Z 18002KT 24/14 A3029 RMK A01 T02360135  RH  055%=      5-min Rain = 0
KDR1 141705Z 15002KT 24/14 A3029 RMK A01 T02400138  RH  055%=      5-min Rain = 0
KDR1 141710Z 18002KT 24/14 A3028 RMK A01 T02440138  RH  054%=      5-min Rain = 0
KDR1 141715Z 20003KT 25/14 A3029 RMK A01 T02460143  RH  055%=      5-min Rain = 0
KDR1 141720Z 18003KT 25/15 A3029 RMK A01 T02530145  RH  053%=      5-min Rain = 0
KDR1 141725Z 17003KT 26/14 A3029 RMK A01 T02620138  RH  049%=      5-min Rain = 0
KDR1 141730Z 17004KT 26/14 A3029 RMK A01 T02580141  RH  051%=      5-min Rain = 0
KDR1 141735Z 16003KT 26/14 A3029 RMK A01 T02620136  RH  048%=      5-min Rain = 0
KDR1 141740Z 15005KT 27/13 A3029 RMK A01 T02700134  RH  045%=      5-min Rain = 0
KDR1 141745Z 12003KT 27/13 A3028 RMK A01 T02720128  RH  043%=      5-min Rain = 0
KDR1 141750Z 10004KT 28/13 A3029 RMK A01 T02780131  RH  042%=      5-min Rain = 0
KDR1 141755Z 15003G8KT 28/13 A3029 RMK A01 T02830132  RH  041%=      5-min Rain = 0
KDR1 141800Z 16005KT 28/12 A3029 RMK A01 T02840124  RH  039%=      5-min Rain = 0
KDR1 141805Z 11005KT 29/12 A3029 RMK A01 T02860118  RH  037%=      5-min Rain = 0
KDR1 141810Z 11004KT 29/12 A3029 RMK A01 T02900122  RH  037%=      5-min Rain = 0
KDR1 141815Z 15004KT 29/13 A3029 RMK A01 T02910129  RH  038%=      5-min Rain = 0
KDR1 141820Z 10004KT 29/12 A3028 RMK A01 T02920122  RH  036%=      5-min Rain = 0.01
KDR1 141825Z 06004KT 29/13 A3028 RMK A01 T02940126  RH  037%=      5-min Rain = 0
KDR1 141830Z 09003KT 29/12 A3028 RMK A01 T02930122  RH  036%=      5-min Rain = 0
KDR1 141835Z 02002KT 30/12 A3028 RMK A01 T02950117  RH  035%=      5-min Rain = 0
KDR1 141840Z 08003KT 30/12 A3028 RMK A01 T03000119  RH  034%=      5-min Rain = 0
KDR1 141845Z 07007KT 30/12 A3028 RMK A01 T03020116  RH  033%=      5-min Rain = 0
KDR1 141850Z 07011G18KT 31/11 A3028 RMK A01 T03090113  RH  031%=      5-min Rain = 0
KDR1 141855Z 07012KT 31/11 A3028 RMK A01 T03060106  RH  030%=      5-min Rain = 0
KDR1 141900Z 07011KT 31/10 A3028 RMK A01 T03050103  RH  030%=      5-min Rain = 0
KDR1 141905Z 06011G16KT 31/12 A3027 RMK A01 T03060115  RH  032%=      5-min Rain = 0
KDR1 141910Z 07011G18KT 31/12 A3027 RMK A01 T03060123  RH  034%=      5-min Rain = 0
KDR1 141915Z 05012KT 30/12 A3027 RMK A01 T03020121  RH  034%=      5-min Rain = 0
KDR1 141920Z 05011G16KT 30/12 A3027 RMK A01 T03020123  RH  034%=      5-min Rain = 0
KDR1 141925Z 06010G16KT 31/12 A3027 RMK A01 T03060123  RH  034%=      5-min Rain = 0
KDR1 141930Z 06010KT 31/13 A3027 RMK A01 T03060125  RH  034%=      5-min Rain = 0
KDR1 141935Z 05012G20KT 30/12 A3027 RMK A01 T02990121  RH  035%=      5-min Rain = 0
KDR1 141940Z 04009KT 30/12 A3027 RMK A01 T02980117  RH  034%=      5-min Rain = 0
KDR1 141945Z 07007KT 31/12 A3027 RMK A01 T03050121  RH  034%=      5-min Rain = 0
KDR1 141950Z 09007G12KT 30/11 A3026 RMK A01 T03010111  RH  032%=      5-min Rain = 0
KDR1 141955Z 06007G13KT 30/11 A3026 RMK A01 T03030114  RH  032%=      5-min Rain = 0
KDR1 142000Z 07006G11KT 31/11 A3026 RMK A01 T03060113  RH  032%=      5-min Rain = 0
KDR1 142005Z 07007G13KT 31/12 A3026 RMK A01 T03070115  RH  032%=      5-min Rain = 0
KDR1 142010Z 10006KT 30/11 A3025 RMK A01 T03040110  RH  031%=      5-min Rain = 0
KDR1 142015Z 09006G11KT 31/11 A3025 RMK A01 T03100114  RH  031%=      5-min Rain = 0
KDR1 142020Z 07007KT 31/11 A3025 RMK A01 T03100112  RH  031%=      5-min Rain = 0
KDR1 142025Z 08006G12KT 31/11 A3024 RMK A01 T03110114  RH  031%=      5-min Rain = 0
KDR1 142030Z 10006G12KT 31/11 A3024 RMK A01 T03080108  RH  030%=      5-min Rain = 0
KDR1 142035Z 06005G10KT 31/11 A3023 RMK A01 T03120108  RH  030%=      5-min Rain = 0
KDR1 142040Z 05004G9KT 31/11 A3023 RMK A01 T03100110  RH  030%=      5-min Rain = 0
KDR1 142045Z 05006KT 31/11 A3023 RMK A01 T03110111  RH  030%=      5-min Rain = 0
KDR1 142050Z 11006KT 31/11 A3023 RMK A01 T03130110  RH  030%=      5-min Rain = 0
KDR1 142055Z 13004KT 31/10 A3022 RMK A01 T03120102  RH  028%=      5-min Rain = 0
KDR1 142100Z 13003KT 32/10 A3022 RMK A01 T03160104  RH  028%=      5-min Rain = 0
KDR1 142105Z 11006KT 32/11 A3021 RMK A01 T03180108  RH  029%=      5-min Rain = 0
KDR1 142110Z 13005KT 32/11 A3021 RMK A01 T03190105  RH  028%=      5-min Rain = 0
KDR1 142115Z 18003KT 32/11 A3021 RMK A01 T03150105  RH  029%=      5-min Rain = 0
KDR1 142120Z 16002KT 32/10 A302 RMK A01 T03150103  RH  028%=      5-min Rain = 0
KDR1 142125Z 15003KT 31/10 A302 RMK A01 T03140101  RH  028%=      5-min Rain = 0
KDR1 142130Z 16004KT 32/11 A302 RMK A01 T03160105  RH  028%=      5-min Rain = 0
KDR1 142135Z 20005KT 32/11 A302 RMK A01 T03150114  RH  030%=      5-min Rain = 0
KDR1 142140Z 26003KT 31/11 A3019 RMK A01 T03140107  RH  029%=      5-min Rain = 0
KDR1 142145Z 32002KT 32/11 A3019 RMK A01 T03150112  RH  030%=      5-min Rain = 0
KDR1 142150Z 27003KT 31/11 A3019 RMK A01 T03130110  RH  030%=      5-min Rain = 0
KDR1 142155Z 25003KT 32/11 A3018 RMK A01 T03160109  RH  029%=      5-min Rain = 0
KDR1 142200Z 28001KT 32/11 A3018 RMK A01 T03180108  RH  028%=      5-min Rain = 0
KDR1 142205Z 14002G8KT 32/11 A3018 RMK A01 T03230107  RH  028%=      5-min Rain = 0
KDR1 142210Z 14005KT 32/10 A3018 RMK A01 T03220102  RH  027%=      5-min Rain = 0
KDR1 142215Z 15003KT 32/10 A3018 RMK A01 T03180098  RH  027%=      5-min Rain = 0
KDR1 142220Z 12003KT 32/10 A3018 RMK A01 T03220102  RH  027%=      5-min Rain = 0
KDR1 142225Z 05003KT 32/10 A3017 RMK A01 T03170100  RH  027%=      5-min Rain = 0
KDR1 142230Z 05004KT 32/10 A3017 RMK A01 T03170101  RH  027%=      5-min Rain = 0
KDR1 142235Z 09004KT 31/10 A3017 RMK A01 T03140099  RH  027%=      5-min Rain = 0
KDR1 142240Z 12004KT 32/10 A3017 RMK A01 T03190100  RH  027%=      5-min Rain = 0
KDR1 142245Z 12006KT 32/10 A3017 RMK A01 T03220100  RH  026%=      5-min Rain = 0
KDR1 142250Z 07004KT 32/10 A3017 RMK A01 T03200098  RH  026%=      5-min Rain = 0
KDR1 142255Z 11003G8KT 32/10 A3017 RMK A01 T03210100  RH  027%=      5-min Rain = 0
KDR1 142300Z 14003G9KT 32/10 A3017 RMK A01 T03220096  RH  026%=      5-min Rain = 0
KDR1 142305Z 10003KT 32/10 A3017 RMK A01 T03230097  RH  026%=      5-min Rain = 0
KDR1 142310Z 09004KT 32/10 A3016 RMK A01 T03220096  RH  026%=      5-min Rain = 0
KDR1 142315Z 09005KT 32/10 A3017 RMK A01 T03240098  RH  026%=      5-min Rain = 0
KDR1 142320Z 11005KT 32/10 A3017 RMK A01 T03240098  RH  026%=      5-min Rain = 0
KDR1 142325Z 14005KT 32/09 A3017 RMK A01 T03240094  RH  025%=      5-min Rain = 0
KDR1 142330Z 15006KT 32/10 A3017 RMK A01 T03220095  RH  025%=      5-min Rain = 0
KDR1 142335Z 16006G11KT 32/09 A3016 RMK A01 T03220094  RH  025%=      5-min Rain = 0
KDR1 142340Z 12006KT 32/09 A3016 RMK A01 T03190094  RH  026%=      5-min Rain = 0
KDR1 142345Z 09006KT 32/10 A3016 RMK A01 T03170095  RH  026%=      5-min Rain = 0
KDR1 142350Z 10005KT 31/10 A3016 RMK A01 T03140095  RH  027%=      5-min Rain = 0
KDR1 142355Z 09005KT 31/10 A3016 RMK A01 T03130095  RH  027%=      5-min Rain = 0
KDR1 150000Z 10005KT 32/09 A3016 RMK A01 T03180093  RH  026%=      5-min Rain = 0
KDR1 150005Z 10004KT 32/10 A3016 RMK A01 T03180095  RH  026%=      5-min Rain = 0
KDR1 150010Z 11006KT 32/09 A3016 RMK A01 T03180094  RH  026%=      5-min Rain = 0
KDR1 150015Z 14006KT 31/09 A3016 RMK A01 T03130094  RH  027%=      5-min Rain = 0
KDR1 150020Z 13006KT 31/10 A3016 RMK A01 T03070098  RH  028%=      5-min Rain = 0
KDR1 150025Z 13006KT 30/10 A3016 RMK A01 T02990102  RH  030%=      5-min Rain = 0
KDR1 150030Z 12005KT 30/10 A3017 RMK A01 T02950104  RH  032%=      5-min Rain = 0
KDR1 150035Z 12004KT 29/11 A3017 RMK A01 T02910110  RH  034%=      5-min Rain = 0
KDR1 150040Z 11004KT 29/12 A3017 RMK A01 T02870120  RH  037%=      5-min Rain = 0
KDR1 150045Z 11004KT 28/13 A3017 RMK A01 T02840128  RH  040%=      5-min Rain = 0
KDR1 150050Z 12004KT 28/13 A3017 RMK A01 T02820131  RH  041%=      5-min Rain = 0
KDR1 150055Z 12004KT 28/13 A3017 RMK A01 T02810134  RH  042%=      5-min Rain = 0
KDR1 150100Z 12005KT 28/14 A3017 RMK A01 T02800138  RH  044%=      5-min Rain = 0
KDR1 150105Z 12006KT 28/14 A3017 RMK A01 T02780138  RH  044%=      5-min Rain = 0
KDR1 150110Z 12005KT 28/14 A3017 RMK A01 T02760138  RH  045%=      5-min Rain = 0
KDR1 150115Z 12006KT 27/14 A3017 RMK A01 T02730144  RH  047%=      5-min Rain = 0
KDR1 150120Z 12005KT 27/14 A3018 RMK A01 T02710141  RH  047%=      5-min Rain = 0
KDR1 150125Z 11006KT 27/14 A3018 RMK A01 T02720135  RH  045%=      5-min Rain = 0
KDR1 150130Z 11005KT 27/14 A3018 RMK A01 T02700137  RH  046%=      5-min Rain = 0
KDR1 150135Z 11005KT 27/14 A3018 RMK A01 T02660142  RH  049%=      5-min Rain = 0
KDR1 150140Z 11005KT 26/15 A3019 RMK A01 T02630145  RH  051%=      5-min Rain = 0
KDR1 150145Z 11005KT 26/14 A3019 RMK A01 T02600144  RH  051%=      5-min Rain = 0
KDR1 150150Z 11005KT 26/14 A3019 RMK A01 T02590142  RH  051%=      5-min Rain = 0
KDR1 150155Z 10006KT 26/14 A3019 RMK A01 T02570139  RH  050%=      5-min Rain = 0
KDR1 150200Z 11006KT 26/14 A3019 RMK A01 T02570135  RH  049%=      5-min Rain = 0
KDR1 150205Z 11005KT 26/13 A3019 RMK A01 T02570134  RH  048%=      5-min Rain = 0
KDR1 150210Z 11005KT 25/14 A3019 RMK A01 T02520137  RH  051%=      5-min Rain = 0
KDR1 150215Z 11006KT 25/14 A3019 RMK A01 T02480138  RH  052%=      5-min Rain = 0
KDR1 150220Z 11007KT 25/14 A3019 RMK A01 T02470135  RH  052%=      5-min Rain = 0
KDR1 150225Z 12008KT 25/13 A3019 RMK A01 T02470132  RH  051%=      5-min Rain = 0
KDR1 150230Z 12008KT 25/13 A3019 RMK A01 T02480130  RH  050%=      5-min Rain = 0
KDR1 150235Z 11009KT 25/13 A3019 RMK A01 T02480130  RH  050%=      5-min Rain = 0
KDR1 150240Z 12009KT 25/13 A3019 RMK A01 T02500129  RH  049%=      5-min Rain = 0
KDR1 150245Z 12008KT 25/13 A3019 RMK A01 T02500126  RH  048%=      5-min Rain = 0
KDR1 150250Z 12008KT 25/13 A302 RMK A01 T02510126  RH  048%=      5-min Rain = 0
KDR1 150255Z 12008KT 25/13 A302 RMK A01 T02500126  RH  048%=      5-min Rain = 0
KDR1 150300Z 11009KT 26/12 A302 RMK A01 T02550123  RH  046%=      5-min Rain = 0
KDR1 150305Z 12007KT 25/13 A3021 RMK A01 T02540125  RH  046%=      5-min Rain = 0
KDR1 150310Z 11006KT 25/13 A3021 RMK A01 T02520128  RH  048%=      5-min Rain = 0
KDR1 150315Z 11006KT 25/13 A3022 RMK A01 T02510128  RH  048%=      5-min Rain = 0
KDR1 150320Z 11007KT 25/13 A3022 RMK A01 T02480131  RH  050%=      5-min Rain = 0
KDR1 150325Z 11007KT 25/13 A3022 RMK A01 T02480130  RH  050%=      5-min Rain = 0
KDR1 150330Z 13006KT 25/13 A3023 RMK A01 T02490130  RH  049%=      5-min Rain = 0
KDR1 150335Z 14005KT 25/13 A3023 RMK A01 T02490130  RH  049%=      5-min Rain = 0
KDR1 150340Z 17006G12KT 25/13 A3024 RMK A01 T02540126  RH  047%=      5-min Rain = 0
KDR1 150345Z 27017G26KT 24/12 A3028 RMK A01 T02350124  RH  052%=      5-min Rain = 0
KDR1 150350Z 27020G27KT 22/13 A3027 RMK A01 T02180125  RH  058%=      5-min Rain = 0
KDR1 150355Z 28024G31KT 22/13 A3026 RMK A01 T02180127  RH  059%=      5-min Rain = 0
KDR1 150400Z 28019G25KT 22/13 A3027 RMK A01 T02180128  RH  059%=      5-min Rain = 0
KDR1 150405Z 28021G31KT 21/13 A3027 RMK A01 T02140130  RH  061%=      5-min Rain = 0
KDR1 150410Z 29018G25KT 21/13 A3027 RMK A01 T02090131  RH  064%=      5-min Rain = 0
KDR1 150415Z 29018G24KT 21/13 A3027 RMK A01 T02080132  RH  064%=      5-min Rain = 0
KDR1 150420Z 29017G22KT 21/13 A3028 RMK A01 T02090132  RH  064%=      5-min Rain = 0
KDR1 150425Z 29016G22KT 21/13 A3028 RMK A01 T02100132  RH  063%=      5-min Rain = 0
KDR1 150430Z 29017KT 21/13 A3028 RMK A01 T02090134  RH  064%=      5-min Rain = 0
KDR1 150435Z 29017G22KT 21/14 A3028 RMK A01 T02080135  RH  066%=      5-min Rain = 0
KDR1 150440Z 29017G24KT 21/14 A3028 RMK A01 T02060137  RH  067%=      5-min Rain = 0
KDR1 150445Z 29015G21KT 21/14 A3028 RMK A01 T02070138  RH  067%=      5-min Rain = 0
KDR1 150450Z 29015G20KT 21/14 A3028 RMK A01 T02070139  RH  068%=      5-min Rain = 0
KDR1 150455Z 29015G20KT 21/14 A3028 RMK A01 T02090136  RH  066%=      5-min Rain = 0

Page generated in 0.0088 seconds.